Share

Almira, WA (99103)

3 miles ESE of Grand Coulee Dam, in Lincoln County, WA (KWAGRAND5) Elev 1575 ft | 47.92 °N, 118.94 °W | Change Station

Current weather conditions updated 2 minutes ago

Scattered Clouds
Scattered Clouds
52.5 °F
Feels Like 52.5 °F
N
3.0
Wind Variable Wind from NE
Gusts 11.0 mph
Sunrise 5:59 AM
Sunset 7:51 PM
Moon Waning Gibbous

Today is forecast to be nearly the same temperature as yesterday.

Pressure 29.87 in
Visibility 10.0 miles
Clouds Scattered Clouds 11000 ft
Dew Point 32 °F
Humidity 45%
Rainfall 0.00 in
Snow Depth Not available.
UV 5 out of 16
Pollen 10.10 out of 12
Air Quality Not available.
Flu Activity Sporadic
METAR KEPH 191753Z AUTO 36006KT 10SM SCT110 11/M02 A2986 RMK AO2 SLP113 T01111017 10111 20006 57009

More Conditions Fewer Conditions

Pressure 29.87 in
Visibility 10.0 miles
Clouds Scattered Clouds 11000 ft
Dew Point 32 °F
Humidity 45%
Rainfall 0.00 in
Snow Depth Not available.
UV 5 out of 16
Pollen 10.10 out of 12
Air Quality Not available.
Flu Activity Sporadic
METAR KEPH 191753Z AUTO 36006KT 10SM SCT110 11/M02 A2986 RMK AO2 SLP113 T01111017 10111 20006 57009

More Conditions Fewer Conditions

10-Day Weather Forecast

Almanac

Astronomy

Apr. 19, 2014 Rise Set
Actual Time 5:59 AM PDT 7:51 PM PDT
Civil Twilight 5:26 AM PDT 8:24 PM PDT
Nautical Twilight 4:45 AM PDT 9:05 PM PDT
Astronomical Twilight 4:01 AM PDT 9:49 PM PDT
Moon No Moon Rise 9:12 AM PDT
Length of Visible Light 14h 58m
Length of Day
13h 52m
Tomorrow will be 3m 15s longer.
Waning Gibbous, 78% of the Moon is Illuminated
Today
Waning Gibbous
Apr 22
Last Quarter
Apr 29
New
May 6
First Quarter
May 14
Full

Today's Extremes

State Highs State Lows

Community

  • Piriapolis
    Piriapolis
  • A Glorious Morning
    A Glorious Morning
  • Tender Rays Of Hope
    Tender Rays Of Hope
  • Bleeding Hearts
    Bleeding Hearts
  • Sunset Silhouettes
    Sunset Silhouettes

WunderPhotos

Upload Photos

1,702,820 photos uploaded!

WunderBlogs® & News

Nearby

Snow Depth

Station Depth Elevation
Moses Mountain 17 in 5300 ft
Trough 14 in 5300 ft
Upper Wheeler 17 in 4400 ft
Salmon Meadows 0 in 4500 ft
Pope Ridge 20 in 3540 ft

Coastal Water Temperatures

Place Temperature
No Stations Reporting

Earthquake Activity

City Distance Mag. Time & Date
Princeton, Canada 134 miles 2.5 2:14 PM PDT
2014-04-12
Minimum magnitude displayed is 2.5.

Nearby Weather Stations

Station Location Temp. Dew Point Humidity Wind Precip. Elev Updated Type
3 miles ESE of Grand Coulee Dam, in Linc, Grand Coulee, WA 52.5 °F 32 °F 45% NE  at  3.0 mph 0.00 in / hr 1575 ft 11:20 AM PDT Rapid Fire

Show More Stations Show Fewer Stations

What do you think?

We're not finished. Please let us know what you like, what you don't like, and what you are still missing.